Main page
METAR-TAF:

METAR-TAF

Airports :

Fort Wayne International Airport

Fort Wayne, Indiana, United States

latitude: 40-58-42N, longitude: 085-11-43W, elevation: 813 ft

Current weather observation

The report was made 14 minutes ago, at 09:54 UTC
Calm wind
Temperature 57°F
Humidity 88%
Pressure 30.10 in. Hg
Visibility: 10 miles
Clear sky

METAR: KFWA 180954Z 00000KT 10SM CLR 14/12 A3010 RMK AO2 SLP188 T01390117

Time: 06:08 (10:08 UTC)

Forecast

The report was made 4 hours and 47 minutes ago, at 05:21 UTC
Forecast valid from 18 at 06 UTC to 19 at 06 UTC
Wind 6 mph from the Northwest
Visibility: 6 miles
Clear sky
From 18 at 1400 UTC
Wind 10 mph from the North
Visibility: 6 miles
Scattered clouds at a height of 5000 ft

TAF: KFWA 180521Z 1806/1906 31005KT P6SM SKC FM181400 36009KT P6SM SCT050

Weather observations and forecasts of more than 4000 airports (METAR and TAF reports).

The available stations are represented by yellow and red dots on the map.

Hover mouse over dot to see the name of the station.

Then click to see weather observations and forecasts.

To change the map : click on the green buttons with a black cross to zoom in, on the green button with a dash to zoom out, or on the green arrows for adjacent maps.


METAR-TAF: